【羽田空港本店】梅雨時期はいろんな物が壊れるのか…?

LUXURY FLIGHT

080-7560-1817

羽田空港本店: 所在地: 東京都大田区羽田空港3-3-2    セントレア店: 所在地: 愛知県常滑市セントレア1-1      HICityファイター店: 所在地: 東京都大田区羽田空港1-1-4
           第1旅客ターミナル5階                  FLIGHT OF DREAMS FLIGHT PARK                 HANEDA INNOVATION CITY ZONE-J 2-5
      営業時間: 10:00~20:00 定休日: 年中無休         営業時間: 10:00~20:00 定休日: 年中無休             営業時間: 10:00~20:00 定休日: 年中無休
      電話番号: 080-7560-1817                  電話番号: 080-4945-5666                     電話番号: 03-5579-7980

lv

【羽田空港本店】梅雨時期はいろんな物が壊れるのか…?

STAFF BLOG

2020/06/21 【羽田空港本店】梅雨時期はいろんな物が壊れるのか…?

おはようございます

 

本日の羽田空港のMETARは…

 

RJTT 210000Z 03010KT 9999 -SHRA FEW015 BKN020 BKN070 21/17 Q1012

NOSIG RMK 1CU015 5CU020 7AC070 A2990

 

 

img_6196

 

ビジュアルにするとこんな感じです。

いわゆる、アレですね、梅雨ですね。

 

このような6月らしい天気ではありますが、今日も展望デッキには多くの見学者の方がいらっしゃっております

おかげさまで本日も終日、ご予約で満席の状況でございます。

いつも本当にありがとうございます!!!!

 

さてさて、羽田空港移転後に仲間に加わってくれたこのシートちゃん達。

 

image0

 

とてもいい子達なのですが、img_6204

 

シートのリクライニングを調整するパーツが破損…

 

img_6201

 

 

たまたま居合わせた、常連の現役のライン整備士の方に頼み込み…

(事務所がすぐそこなので、顔出しNG&シルエットすらご出演NGでした。笑)

 

「あーーーー、このタイプですね、やったことないけど頑張りまーす!!」

と心強い一言を頂いたと思ったら、ものの30分で修理完了!!

 

さすが整備さん!!!

カッコ良すぎます!!!!

img_6203

 

皆様もよく座る、パッセンジャーシートの裏側!!!!

意外とごちゃごちゃしていますね!!!!

 

 

 

オペレーションチェックもOK!!!!

お客様も大喜びです!!!

 

Iさん、本当にありがとうございました!!!

 

皆様に支えられながら、今日も頑張れております。

いつも本当にありがとうございます。

 

「感謝」

 

 

 

TOP